createdAt,value
2024-05-09T00:00:36.504Z,5.20
2024-05-09T00:06:01.713Z,5.20
2024-05-09T00:11:24.113Z,5.10
2024-05-09T00:16:46.016Z,5.00
2024-05-09T00:22:08.084Z,4.90
2024-05-09T00:27:29.936Z,4.90
2024-05-09T00:32:52.199Z,4.80
2024-05-09T00:38:14.315Z,4.70
2024-05-09T00:43:36.121Z,4.70
2024-05-09T00:48:58.245Z,4.60
2024-05-09T00:54:20.438Z,4.60
2024-05-09T00:59:42.466Z,4.60
2024-05-09T01:05:04.578Z,4.50
2024-05-09T01:10:33.651Z,4.50
2024-05-09T01:15:58.396Z,4.40
2024-05-09T01:21:20.317Z,4.40
2024-05-09T01:26:42.299Z,4.40
2024-05-09T01:32:05.112Z,4.30
2024-05-09T01:37:26.917Z,4.30
2024-05-09T01:42:48.887Z,4.20
2024-05-09T01:48:11.429Z,4.20
2024-05-09T01:53:33.890Z,4.10
2024-05-09T01:58:55.881Z,4.10
2024-05-09T02:04:17.904Z,4.00
2024-05-09T02:09:39.716Z,3.90
2024-05-09T02:15:01.487Z,3.90
2024-05-09T02:20:30.620Z,3.80
2024-05-09T02:25:57.293Z,3.80
2024-05-09T02:31:19.364Z,3.70
2024-05-09T02:36:41.575Z,3.60
2024-05-09T02:42:03.502Z,3.60
2024-05-09T02:47:25.776Z,3.50
2024-05-09T02:52:47.534Z,3.50
2024-05-09T02:58:09.415Z,3.40
2024-05-09T03:03:31.893Z,3.30
2024-05-09T03:08:54.053Z,3.30
2024-05-09T03:14:19.715Z,3.20
2024-05-09T03:19:41.498Z,3.20
2024-05-09T03:25:03.412Z,3.20
2024-05-09T03:30:38.585Z,3.20
2024-05-09T03:36:06.863Z,3.10
2024-05-09T03:41:30.495Z,3.10
2024-05-09T03:46:52.452Z,3.10
2024-05-09T03:52:14.382Z,3.10
2024-05-09T03:57:36.155Z,3.20
2024-05-09T04:02:59.411Z,3.30
2024-05-09T04:08:21.543Z,3.40
2024-05-09T04:13:43.657Z,3.60
2024-05-09T04:19:05.921Z,3.80
2024-05-09T04:24:27.786Z,3.90
2024-05-09T04:29:49.650Z,4.10
2024-05-09T04:35:11.951Z,4.30
2024-05-09T04:40:36.959Z,4.50
2024-05-09T04:45:59.503Z,4.70
2024-05-09T04:51:21.535Z,4.90
2024-05-09T04:56:43.547Z,5.10
2024-05-09T05:02:05.659Z,5.30
2024-05-09T05:07:27.454Z,5.50
2024-05-09T05:13:07.755Z,5.70
2024-05-09T05:18:30.126Z,5.90
2024-05-09T05:23:52.110Z,6.10
2024-05-09T05:29:14.388Z,6.30
2024-05-09T05:34:36.858Z,6.50
2024-05-09T05:39:58.999Z,6.70
2024-05-09T05:45:20.548Z,7.00
2024-05-09T05:50:43.427Z,7.30
2024-05-09T05:56:05.831Z,7.50
2024-05-09T06:01:27.494Z,7.90
2024-05-09T06:06:49.700Z,8.30
2024-05-09T06:12:11.680Z,8.60
2024-05-09T06:17:33.665Z,8.90
2024-05-09T06:22:55.385Z,9.20
2024-05-09T06:28:17.413Z,9.50
2024-05-09T06:33:41.317Z,9.70
2024-05-09T06:39:03.195Z,10.00
2024-05-09T06:44:25.298Z,10.20
2024-05-09T06:49:47.452Z,10.50
2024-05-09T06:55:09.219Z,10.80
2024-05-09T07:00:38.356Z,11.00
2024-05-09T07:06:02.653Z,11.30
2024-05-09T07:11:25.192Z,11.90
2024-05-09T07:22:08.922Z,12.60
2024-05-09T07:27:30.740Z,13.00
2024-05-09T07:32:52.780Z,13.20
2024-05-09T07:38:14.886Z,13.60
2024-05-09T07:43:36.448Z,13.90
2024-05-09T07:50:35.615Z,14.20
2024-05-09T07:54:39.830Z,14.60
2024-05-09T08:00:01.601Z,14.90
2024-05-09T08:05:23.631Z,15.40
2024-05-09T08:10:45.545Z,15.60
2024-05-09T08:16:09.146Z,15.90
2024-05-09T08:21:31.313Z,16.00
2024-05-09T08:26:52.993Z,16.10
2024-05-09T08:32:15.113Z,16.60
2024-05-09T08:37:40.586Z,16.80
2024-05-09T08:43:02.875Z,17.10
2024-05-09T08:48:25.421Z,17.20
2024-05-09T08:53:47.499Z,17.40
2024-05-09T08:59:17.317Z,17.50
2024-05-09T09:04:44.621Z,17.80
2024-05-09T09:10:08.572Z,17.90
2024-05-09T09:15:30.475Z,18.20
2024-05-09T09:20:52.321Z,18.40
2024-05-09T09:26:17.058Z,18.50
2024-05-09T09:31:39.543Z,18.80
2024-05-09T09:37:11.660Z,18.80
2024-05-09T09:42:36.415Z,18.90
2024-05-09T09:47:59.520Z,19.00
2024-05-09T09:53:22.922Z,19.00
2024-05-09T09:58:45.735Z,19.20
2024-05-09T10:04:08.236Z,19.10
2024-05-09T10:09:30.487Z,19.10
2024-05-09T10:14:54.345Z,19.20
2024-05-09T10:20:21.857Z,19.30
2024-05-09T10:26:07.669Z,19.30
2024-05-09T10:31:30.806Z,19.30
2024-05-09T10:36:56.018Z,19.50
2024-05-09T10:42:19.934Z,19.30
2024-05-09T10:47:42.467Z,19.10
2024-05-09T10:53:05.051Z,19.00
2024-05-09T10:58:27.990Z,19.10
2024-05-09T11:03:50.913Z,19.20
2024-05-09T11:09:14.943Z,19.40
2024-05-09T11:14:37.125Z,19.70
2024-05-09T11:20:00.660Z,19.70
2024-05-09T11:25:22.367Z,19.90
2024-05-09T11:30:44.179Z,19.70
2024-05-09T11:36:07.783Z,19.80
2024-05-09T11:41:31.525Z,19.80
2024-05-09T11:46:53.897Z,19.70
2024-05-09T11:52:16.000Z,20.00
2024-05-09T11:57:39.265Z,19.90
2024-05-09T12:03:01.111Z,19.90
2024-05-09T12:08:23.114Z,19.80
2024-05-09T12:13:45.106Z,19.70
2024-05-09T12:19:06.999Z,19.90
2024-05-09T12:24:30.810Z,20.10
2024-05-09T12:29:52.678Z,20.10
2024-05-09T12:35:14.680Z,20.10
2024-05-09T12:40:38.758Z,20.20
2024-05-09T12:46:01.569Z,20.20
2024-05-09T12:51:23.214Z,20.30
2024-05-09T12:56:45.059Z,20.20
2024-05-09T13:02:07.049Z,20.20
2024-05-09T13:07:28.891Z,20.30
2024-05-09T13:12:50.455Z,20.70
2024-05-09T13:18:12.486Z,20.40
2024-05-09T13:23:34.437Z,20.60
2024-05-09T13:28:56.380Z,20.60
2024-05-09T13:34:18.280Z,20.60
2024-05-09T13:39:40.091Z,20.90
2024-05-09T13:45:01.898Z,20.90
2024-05-09T13:50:31.599Z,20.90
2024-05-09T13:55:56.944Z,20.70
2024-05-09T14:01:19.164Z,20.70
2024-05-09T14:06:42.398Z,20.60
2024-05-09T14:12:04.177Z,20.70
2024-05-09T14:17:26.301Z,20.70
2024-05-09T14:22:48.249Z,20.80
2024-05-09T14:28:10.732Z,20.70
2024-05-09T14:33:32.676Z,20.60
2024-05-09T14:38:54.432Z,20.50
2024-05-09T14:44:16.362Z,20.70
2024-05-09T14:49:38.153Z,20.80
2024-05-09T14:55:00.998Z,20.90
2024-05-09T15:00:28.814Z,20.80
2024-05-09T15:05:55.256Z,20.70
2024-05-09T15:11:17.269Z,20.40
2024-05-09T15:16:39.268Z,20.10
2024-05-09T15:22:00.985Z,19.90
2024-05-09T15:27:22.966Z,19.70
2024-05-09T15:32:46.710Z,19.60
2024-05-09T15:38:12.439Z,19.30
2024-05-09T15:43:34.156Z,19.30
2024-05-09T15:48:55.954Z,19.00
2024-05-09T15:54:17.884Z,19.10
2024-05-09T15:59:40.074Z,19.30
2024-05-09T16:05:02.281Z,19.30
2024-05-09T16:10:30.071Z,19.30
2024-05-09T16:15:54.521Z,19.40
2024-05-09T16:21:16.711Z,19.60
2024-05-09T16:26:38.837Z,19.80
2024-05-09T16:32:00.288Z,19.80
2024-05-09T16:37:24.250Z,19.80
2024-05-09T16:42:47.155Z,19.80
2024-05-09T16:48:09.217Z,19.90
2024-05-09T16:53:31.371Z,20.10
2024-05-09T16:58:53.252Z,20.20
2024-05-09T17:04:15.450Z,20.20
2024-05-09T17:09:37.393Z,20.10
2024-05-09T17:14:59.075Z,20.10
2024-05-09T17:20:29.401Z,19.80
2024-05-09T17:25:55.340Z,19.80
2024-05-09T17:31:17.345Z,19.70
2024-05-09T17:36:39.108Z,19.60
2024-05-09T17:42:00.887Z,19.60
2024-05-09T17:47:23.487Z,19.40
2024-05-09T17:52:45.220Z,19.20
2024-05-09T17:58:08.038Z,19.00
2024-05-09T18:03:30.266Z,18.70
2024-05-09T18:08:52.343Z,18.40
2024-05-09T18:14:14.047Z,18.00
2024-05-09T18:19:35.841Z,17.60
2024-05-09T18:24:57.986Z,17.30
2024-05-09T18:30:27.424Z,16.90
2024-05-09T18:35:53.563Z,16.60
2024-05-09T18:41:15.341Z,16.30
2024-05-09T18:46:37.041Z,16.00
2024-05-09T18:51:58.946Z,15.70
2024-05-09T18:57:20.904Z,15.40
2024-05-09T19:02:42.589Z,15.00
2024-05-09T19:08:04.260Z,14.80
2024-05-09T19:13:26.240Z,14.50
2024-05-09T19:18:51.273Z,14.20
2024-05-09T19:24:13.755Z,14.00
2024-05-09T19:29:35.184Z,13.70
2024-05-09T19:34:57.043Z,13.50
2024-05-09T19:40:25.109Z,13.20
2024-05-09T19:45:52.647Z,13.00
2024-05-09T19:51:14.487Z,12.80
2024-05-09T19:56:36.523Z,12.60
2024-05-09T20:01:58.370Z,12.40
2024-05-09T20:07:19.998Z,12.20
2024-05-09T20:12:42.030Z,11.90
2024-05-09T20:18:04.804Z,11.70
2024-05-09T20:23:27.568Z,11.60
2024-05-09T20:28:49.511Z,11.40
2024-05-09T20:34:11.269Z,11.30
2024-05-09T20:39:33.137Z,11.10
2024-05-09T20:44:55.160Z,10.90
2024-05-09T20:50:27.422Z,10.70
2024-05-09T20:55:54.974Z,10.60
2024-05-09T21:01:17.014Z,10.40
2024-05-09T21:06:38.973Z,10.30
2024-05-09T21:12:00.926Z,10.10
2024-05-09T21:17:22.637Z,10.00
2024-05-09T21:22:47.522Z,9.80
2024-05-09T21:28:09.627Z,9.70
2024-05-09T21:33:31.493Z,9.50
2024-05-09T21:38:53.626Z,9.40
2024-05-09T21:44:15.560Z,9.30
2024-05-09T21:49:37.658Z,9.20
2024-05-09T21:54:59.522Z,9.10
2024-05-09T22:00:29.000Z,8.90
2024-05-09T22:05:57.343Z,8.80
2024-05-09T22:11:19.337Z,8.70
2024-05-09T22:16:41.710Z,8.70
2024-05-09T22:22:03.913Z,8.60
2024-05-09T22:27:25.886Z,8.50
2024-05-09T22:32:47.589Z,8.40
2024-05-09T22:38:09.400Z,8.40
2024-05-09T22:43:31.700Z,8.30
2024-05-09T22:48:56.537Z,8.30
2024-05-09T22:54:18.421Z,8.20
2024-05-09T22:59:40.159Z,8.10
2024-05-09T23:05:01.957Z,8.10
2024-05-09T23:10:31.447Z,8.00
2024-05-09T23:15:57.810Z,8.00
2024-05-09T23:21:19.602Z,7.90
2024-05-09T23:26:44.614Z,7.90
2024-05-09T23:32:06.765Z,7.80
2024-05-09T23:37:29.174Z,7.70
2024-05-09T23:42:51.035Z,7.70
2024-05-09T23:48:12.990Z,7.60
2024-05-09T23:53:34.668Z,7.50
2024-05-09T23:58:56.668Z,7.50
